Time;durP1;ratioP1;P1;durP2;ratioP2;P2;SDS_P1;SDS_P2;PMS_P1;PMS_P2;Temp;Humidity;BMP_temperature;BMP_pressure;BME280_temperature;BME280_humidity;BME280_pressure;Samples;Min_cycle;Max_cycle;Signal;HPM_P1;HPM_P2
2022/07/18 00:01:04;;;;;;;14.88;6.10;;;;;;;;;;4939988;29;20039;-88
2022/07/18 00:03:30;;;;;;;11.32;5.63;;;;;;;;;;4949346;28;20063;-89
2022/07/18 00:05:56;;;;;;;9.30;6.18;;;;;;;;;;4934215;29;20056;-88
2022/07/18 00:08:22;;;;;;;9.77;6.03;;;;;;;;;;4920130;29;20042;-89
2022/07/18 00:10:48;;;;;;;11.68;5.53;;;;;;;;;;4930566;29;20035;-88
2022/07/18 00:13:14;;;;;;;9.88;5.65;;;;;;;;;;4951181;28;20050;-89
2022/07/18 00:15:40;;;;;;;15.05;7.13;;;;;;;;;;4944810;28;20102;-89
2022/07/18 00:18:06;;;;;;;21.58;5.63;;;;;;;;;;4945711;28;20043;-89
2022/07/18 00:20:33;;;;;;;15.95;6.25;;;;;;;;;;4923565;29;20143;-89
2022/07/18 00:22:59;;;;;;;10.60;5.88;;;;;;;;;;4946021;28;20031;-89
2022/07/18 00:25:25;;;;;;;12.13;6.03;;;;;;;;;;4933982;29;20040;-89
2022/07/18 00:27:51;;;;;;;17.10;6.70;;;;;;;;;;4915438;29;20055;-89
2022/07/18 00:30:17;;;;;;;11.82;6.38;;;;;;;;;;4931357;29;20067;-89
2022/07/18 00:32:43;;;;;;;15.25;7.03;;;;;;;;;;4916993;29;20154;-89
2022/07/18 00:35:09;;;;;;;15.98;7.15;;;;;;;;;;4948029;28;20089;-88
2022/07/18 00:37:35;;;;;;;23.02;6.10;;;;;;;;;;4947949;28;20030;-89
2022/07/18 00:40:01;;;;;;;18.15;7.03;;;;;;;;;;4929850;29;20035;-89
2022/07/18 00:42:27;;;;;;;15.98;6.18;;;;;;;;;;4945589;28;20051;-88
2022/07/18 00:44:56;;;;;;;11.80;6.30;;;;;;;;;;4943340;28;20032;-89
2022/07/18 00:47:23;;;;;;;8.98;5.85;;;;;;;;;;4944172;28;20443;-88
2022/07/18 00:49:49;;;;;;;12.48;6.20;;;;;;;;;;4948418;28;20038;-89
2022/07/18 00:52:15;;;;;;;15.60;6.18;;;;;;;;;;4904634;28;20055;-89
2022/07/18 00:54:41;;;;;;;13.13;6.47;;;;;;;;;;4893757;29;20041;-90
2022/07/18 00:57:07;;;;;;;14.43;6.82;;;;;;;;;;4895555;29;20068;-89
2022/07/18 01:02:18;;;;;;;10.65;6.43;;;;;;;;;;4898604;29;20093;-88
2022/07/18 01:04:44;;;;;;;14.55;6.63;;;;;;;;;;4891972;29;20039;-88
2022/07/18 01:07:11;;;;;;;25.13;7.00;;;;;;;;;;4895177;29;20033;-89
2022/07/18 01:09:37;;;;;;;9.88;6.35;;;;;;;;;;4892813;29;20051;-89
2022/07/18 01:12:04;;;;;;;12.13;6.70;;;;;;;;;;4892646;29;20301;-89
2022/07/18 01:14:30;;;;;;;11.85;6.80;;;;;;;;;;4893301;29;20040;-89
2022/07/18 01:16:56;;;;;;;18.70;6.45;;;;;;;;;;4906943;29;20036;-89
2022/07/18 01:19:23;;;;;;;11.15;6.45;;;;;;;;;;4893108;29;20413;-89
2022/07/18 01:21:49;;;;;;;13.65;7.13;;;;;;;;;;4892142;29;20036;-89
2022/07/18 01:24:15;;;;;;;13.13;6.03;;;;;;;;;;4889460;29;20065;-89
2022/07/18 01:26:41;;;;;;;14.13;6.88;;;;;;;;;;4924964;29;20029;-88
2022/07/18 01:29:07;;;;;;;10.65;6.47;;;;;;;;;;4894602;29;20473;-89
2022/07/18 01:31:33;;;;;;;11.77;7.07;;;;;;;;;;4892150;29;20454;-89
2022/07/18 01:34:00;;;;;;;11.18;6.20;;;;;;;;;;4907437;29;20080;-89
2022/07/18 01:36:26;;;;;;;11.45;7.00;;;;;;;;;;4891822;29;20522;-89
2022/07/18 01:38:52;;;;;;;10.05;6.22;;;;;;;;;;4895467;29;20043;-89
2022/07/18 01:41:18;;;;;;;15.73;6.93;;;;;;;;;;4897188;29;20409;-89
2022/07/18 01:43:44;;;;;;;13.00;6.25;;;;;;;;;;4911491;29;20092;-89
2022/07/18 01:46:11;;;;;;;14.38;7.05;;;;;;;;;;4892742;29;20036;-89
2022/07/18 01:48:38;;;;;;;14.80;7.05;;;;;;;;;;4910191;29;20065;-89
2022/07/18 01:51:05;;;;;;;12.25;6.40;;;;;;;;;;4897876;29;20032;-88
2022/07/18 01:53:31;;;;;;;15.27;6.72;;;;;;;;;;4922342;28;20435;-88
2022/07/18 01:55:57;;;;;;;12.45;6.45;;;;;;;;;;4944543;28;20123;-89
2022/07/18 01:58:23;;;;;;;16.77;6.63;;;;;;;;;;4935028;29;20043;-88
2022/07/18 02:00:49;;;;;;;16.90;6.70;;;;;;;;;;4947205;28;20391;-88
2022/07/18 02:03:15;;;;;;;13.13;6.85;;;;;;;;;;4944995;28;20624;-88
2022/07/18 02:05:41;;;;;;;13.35;6.95;;;;;;;;;;4915889;29;20128;-88
2022/07/18 02:08:07;;;;;;;13.98;6.95;;;;;;;;;;4917172;29;20051;-88
2022/07/18 02:10:33;;;;;;;11.57;7.40;;;;;;;;;;4916704;29;20527;-89
2022/07/18 02:12:59;;;;;;;16.27;7.10;;;;;;;;;;4946480;28;20222;-88
2022/07/18 02:15:26;;;;;;;16.73;6.57;;;;;;;;;;4945960;28;20035;-89
2022/07/18 02:17:52;;;;;;;11.85;6.60;;;;;;;;;;4931387;29;20789;-89
2022/07/18 02:20:18;;;;;;;14.70;6.28;;;;;;;;;;4945692;28;20511;-88
2022/07/18 02:22:44;;;;;;;14.77;7.20;;;;;;;;;;4944237;28;20043;-89
2022/07/18 02:25:11;;;;;;;15.80;7.28;;;;;;;;;;4929672;29;20058;-89
2022/07/18 02:27:38;;;;;;;15.95;7.22;;;;;;;;;;4931085;29;20574;-89
2022/07/18 02:30:05;;;;;;;16.48;7.85;;;;;;;;;;4928666;29;20483;-90
2022/07/18 02:32:31;;;;;;;17.38;7.68;;;;;;;;;;4930752;29;20633;-89
2022/07/18 02:34:57;;;;;;;14.90;7.78;;;;;;;;;;4933227;29;20039;-89
2022/07/18 02:37:23;;;;;;;15.15;7.15;;;;;;;;;;4946250;28;20089;-88
2022/07/18 02:39:49;;;;;;;13.88;6.82;;;;;;;;;;4927799;29;20028;-89
2022/07/18 02:42:15;;;;;;;12.38;7.57;;;;;;;;;;4929807;29;20546;-89
2022/07/18 02:44:41;;;;;;;12.90;6.97;;;;;;;;;;4930615;29;20023;-90
2022/07/18 02:47:07;;;;;;;15.18;6.65;;;;;;;;;;4932394;29;20062;-89
2022/07/18 02:49:33;;;;;;;13.23;6.50;;;;;;;;;;4931451;29;20031;-89
2022/07/18 02:52:09;;;;;;;20.05;6.75;;;;;;;;;;4943922;28;20152;-89
2022/07/18 02:54:36;;;;;;;14.50;6.78;;;;;;;;;;4931652;29;20111;-88
2022/07/18 02:57:02;;;;;;;11.48;7.32;;;;;;;;;;4944723;28;20028;-90
2022/07/18 02:59:28;;;;;;;11.80;7.15;;;;;;;;;;4944989;28;20054;-89
2022/07/18 03:01:55;;;;;;;10.35;5.65;;;;;;;;;;4944331;28;20027;-89
2022/07/18 03:04:21;;;;;;;10.50;5.90;;;;;;;;;;4943743;28;20483;-88
2022/07/18 03:06:48;;;;;;;10.98;6.03;;;;;;;;;;4932639;29;20023;-89
2022/07/18 03:09:14;;;;;;;10.60;5.93;;;;;;;;;;4928561;28;20397;-89
2022/07/18 03:11:41;;;;;;;11.20;5.97;;;;;;;;;;4933314;29;20042;-89
2022/07/18 03:14:07;;;;;;;17.00;6.18;;;;;;;;;;4932176;29;20495;-90
2022/07/18 03:16:33;;;;;;;13.13;6.53;;;;;;;;;;4947620;28;20043;-89
2022/07/18 03:19:06;;;;;;;9.35;5.85;;;;;;;;;;4942161;28;20037;-88
2022/07/18 03:21:32;;;;;;;9.88;5.72;;;;;;;;;;4929107;29;20554;-89
2022/07/18 03:23:58;;;;;;;12.68;6.10;;;;;;;;;;4943398;28;20036;-88
2022/07/18 03:26:24;;;;;;;12.40;6.38;;;;;;;;;;4944851;28;20062;-88
2022/07/18 03:28:50;;;;;;;16.92;6.85;;;;;;;;;;4932426;29;20031;-88
2022/07/18 03:31:16;;;;;;;10.88;6.43;;;;;;;;;;4947758;28;20024;-88
2022/07/18 03:33:49;;;;;;;15.65;6.22;;;;;;;;;;4945025;28;20388;-88
2022/07/18 03:36:15;;;;;;;17.52;6.10;;;;;;;;;;4929299;29;20078;-89
2022/07/18 03:38:42;;;;;;;10.68;5.90;;;;;;;;;;4943257;28;20036;-89
2022/07/18 03:41:09;;;;;;;10.57;5.82;;;;;;;;;;4945459;28;20122;-89
2022/07/18 03:43:36;;;;;;;15.82;6.95;;;;;;;;;;4945255;28;20032;-88
2022/07/18 03:46:02;;;;;;;15.55;6.78;;;;;;;;;;4917807;29;20031;-88
2022/07/18 03:48:27;;;;;;;11.15;6.13;;;;;;;;;;4944440;28;20068;-89
2022/07/18 03:50:54;;;;;;;16.85;7.78;;;;;;;;;;4941338;28;20066;-89
2022/07/18 03:53:20;;;;;;;12.05;6.75;;;;;;;;;;4942324;28;20051;-88
2022/07/18 03:55:49;;;;;;;14.75;7.60;;;;;;;;;;4932384;29;20027;-89
2022/07/18 03:58:15;;;;;;;10.73;6.07;;;;;;;;;;4931830;29;20167;-88
2022/07/18 04:00:41;;;;;;;16.80;7.40;;;;;;;;;;4944691;28;20479;-88
2022/07/18 04:03:07;;;;;;;12.68;7.07;;;;;;;;;;4912828;29;20069;-88
2022/07/18 04:05:33;;;;;;;14.43;7.00;;;;;;;;;;4934802;29;20040;-88
2022/07/18 04:07:59;;;;;;;13.05;6.38;;;;;;;;;;4929554;29;20626;-89
2022/07/18 04:10:25;;;;;;;11.35;6.95;;;;;;;;;;4943566;28;20079;-88
2022/07/18 04:12:52;;;;;;;14.77;6.60;;;;;;;;;;4942283;28;20032;-89
2022/07/18 04:15:20;;;;;;;15.40;7.40;;;;;;;;;;4930253;29;20040;-89
2022/07/18 04:17:46;;;;;;;20.15;7.00;;;;;;;;;;4916679;29;20427;-89
2022/07/18 04:20:13;;;;;;;15.07;7.50;;;;;;;;;;4930899;29;20067;-89
2022/07/18 04:22:45;;;;;;;16.40;6.95;;;;;;;;;;4945816;28;20403;-88
2022/07/18 04:25:11;;;;;;;15.75;7.10;;;;;;;;;;4947410;28;20122;-88
2022/07/18 04:27:37;;;;;;;13.02;6.65;;;;;;;;;;4947141;28;20484;-89
2022/07/18 04:30:05;;;;;;;14.48;7.53;;;;;;;;;;4948600;28;20521;-88
2022/07/18 04:32:31;;;;;;;12.30;6.35;;;;;;;;;;4913831;29;20038;-88
2022/07/18 04:34:57;;;;;;;12.90;6.72;;;;;;;;;;4934235;29;20399;-88
2022/07/18 04:37:23;;;;;;;17.08;6.35;;;;;;;;;;4933135;29;20031;-88
2022/07/18 04:39:49;;;;;;;13.30;6.07;;;;;;;;;;4933271;29;20096;-87
2022/07/18 04:42:15;;;;;;;12.95;6.60;;;;;;;;;;4935081;29;20036;-88
2022/07/18 04:44:41;;;;;;;14.07;7.05;;;;;;;;;;4947124;28;20980;-88
2022/07/18 04:47:07;;;;;;;11.25;5.90;;;;;;;;;;4949728;28;20130;-88
2022/07/18 04:49:33;;;;;;;13.60;6.75;;;;;;;;;;4949884;28;20039;-88
2022/07/18 04:51:59;;;;;;;14.88;6.28;;;;;;;;;;4912903;29;20023;-89
2022/07/18 04:54:25;;;;;;;14.65;6.38;;;;;;;;;;4946522;28;20090;-88
2022/07/18 04:56:51;;;;;;;10.02;5.47;;;;;;;;;;4947739;28;20462;-88
2022/07/18 04:59:17;;;;;;;9.32;5.53;;;;;;;;;;4950267;28;20039;-88
2022/07/18 05:01:43;;;;;;;12.23;5.95;;;;;;;;;;4946352;28;20530;-88
2022/07/18 05:04:09;;;;;;;10.63;5.85;;;;;;;;;;4949893;28;20051;-88
2022/07/18 05:06:35;;;;;;;13.68;5.50;;;;;;;;;;4950468;28;20051;-88
2022/07/18 05:09:01;;;;;;;12.00;5.28;;;;;;;;;;4947366;28;20046;-87
2022/07/18 05:11:27;;;;;;;18.30;6.03;;;;;;;;;;4935399;29;20443;-88
2022/07/18 05:13:53;;;;;;;7.88;5.28;;;;;;;;;;4933312;28;20059;-88
2022/07/18 05:16:19;;;;;;;10.70;5.75;;;;;;;;;;4933908;29;20460;-88
2022/07/18 05:18:45;;;;;;;11.50;5.68;;;;;;;;;;4916237;29;20088;-88
2022/07/18 05:21:11;;;;;;;14.82;5.47;;;;;;;;;;4913873;29;20031;-88
2022/07/18 05:23:37;;;;;;;13.07;5.25;;;;;;;;;;4945069;28;20115;-88
2022/07/18 05:26:03;;;;;;;17.13;6.45;;;;;;;;;;4949390;28;20074;-88
2022/07/18 05:28:29;;;;;;;10.77;4.93;;;;;;;;;;4932228;29;20032;-88
2022/07/18 05:30:55;;;;;;;15.55;5.28;;;;;;;;;;4931042;29;20102;-88
2022/07/18 05:33:23;;;;;;;10.10;4.75;;;;;;;;;;4946097;28;20539;-88
2022/07/18 05:35:49;;;;;;;11.30;5.03;;;;;;;;;;4935923;29;20035;-88
2022/07/18 05:38:15;;;;;;;12.18;5.93;;;;;;;;;;4946299;28;20557;-88
2022/07/18 05:40:41;;;;;;;16.05;5.43;;;;;;;;;;4945742;28;20109;-87
2022/07/18 05:43:07;;;;;;;17.15;4.65;;;;;;;;;;4935079;29;20635;-88
2022/07/18 05:45:36;;;;;;;8.13;3.83;;;;;;;;;;4943925;28;20044;-88
2022/07/18 05:48:02;;;;;;;12.55;4.72;;;;;;;;;;4947140;28;20043;-88
2022/07/18 05:50:28;;;;;;;17.33;4.45;;;;;;;;;;4945812;28;20036;-88
2022/07/18 05:52:55;;;;;;;17.83;5.03;;;;;;;;;;4931511;28;20048;-88
2022/07/18 05:55:21;;;;;;;32.30;5.72;;;;;;;;;;4945177;28;20442;-88
2022/07/18 05:57:47;;;;;;;25.58;4.78;;;;;;;;;;4928984;29;20618;-88
2022/07/18 06:00:14;;;;;;;23.45;4.45;;;;;;;;;;4914251;29;20114;-87
2022/07/18 06:02:40;;;;;;;27.70;4.10;;;;;;;;;;4944951;28;20070;-89
2022/07/18 06:05:06;;;;;;;16.70;4.25;;;;;;;;;;4950341;28;20357;-88
2022/07/18 06:07:32;;;;;;;12.20;3.97;;;;;;;;;;4929645;29;20038;-89
2022/07/18 06:09:58;;;;;;;14.85;3.05;;;;;;;;;;4929401;29;20028;-89
2022/07/18 06:12:25;;;;;;;11.82;3.15;;;;;;;;;;4933424;29;20036;-89
2022/07/18 06:14:51;;;;;;;10.98;3.63;;;;;;;;;;4945040;28;20028;-89
2022/07/18 06:17:17;;;;;;;10.23;2.78;;;;;;;;;;4945574;28;20181;-88
2022/07/18 06:19:43;;;;;;;8.70;2.80;;;;;;;;;;4929848;29;20031;-88
2022/07/18 06:22:09;;;;;;;11.45;3.35;;;;;;;;;;4944288;28;20035;-89
2022/07/18 06:24:35;;;;;;;3.72;2.72;;;;;;;;;;4944945;28;20391;-89
2022/07/18 06:27:01;;;;;;;6.40;2.42;;;;;;;;;;4944240;28;20035;-88
2022/07/18 06:29:27;;;;;;;10.00;3.13;;;;;;;;;;4945877;28;20038;-88
2022/07/18 06:31:53;;;;;;;12.25;2.65;;;;;;;;;;4941983;28;20096;-88
2022/07/18 06:34:19;;;;;;;9.65;3.13;;;;;;;;;;4945304;28;20460;-88
2022/07/18 06:36:45;;;;;;;3.65;2.42;;;;;;;;;;4911353;29;20046;-90
2022/07/18 06:39:12;;;;;;;9.00;2.90;;;;;;;;;;4947272;28;20554;-90
2022/07/18 06:41:39;;;;;;;4.93;2.45;;;;;;;;;;4912042;29;20304;-93
2022/07/18 06:44:05;;;;;;;5.18;2.30;;;;;;;;;;4925915;29;20044;-88
2022/07/18 06:46:31;;;;;;;12.80;3.17;;;;;;;;;;4933483;28;20048;-89
2022/07/18 06:48:57;;;;;;;8.75;2.70;;;;;;;;;;4944071;28;20043;-87
2022/07/18 06:51:24;;;;;;;9.25;2.63;;;;;;;;;;4912826;29;20046;-91
2022/07/18 06:53:51;;;;;;;10.40;2.95;;;;;;;;;;4922817;29;20052;-91
2022/07/18 06:56:17;;;;;;;7.75;2.67;;;;;;;;;;4936714;29;20451;-92
2022/07/18 06:58:48;;;;;;;7.03;2.90;;;;;;;;;;4945853;28;20032;-93
2022/07/18 07:01:15;;;;;;;5.15;2.78;;;;;;;;;;4917260;29;20101;-93
2022/07/18 07:03:41;;;;;;;11.30;3.25;;;;;;;;;;4929791;29;20046;-93
2022/07/18 07:06:07;;;;;;;6.93;2.45;;;;;;;;;;4914312;29;20024;-92
2022/07/18 07:08:33;;;;;;;12.15;2.70;;;;;;;;;;4946654;28;20046;-93
2022/07/18 07:11:00;;;;;;;6.25;2.50;;;;;;;;;;4917150;29;20086;-92
2022/07/18 07:13:26;;;;;;;4.15;2.45;;;;;;;;;;4945902;28;20032;-92
2022/07/18 07:15:52;;;;;;;8.70;2.03;;;;;;;;;;4943247;28;20039;-93
2022/07/18 07:18:18;;;;;;;9.77;2.58;;;;;;;;;;4949640;28;20023;-92
2022/07/18 07:20:44;;;;;;;5.07;2.40;;;;;;;;;;4948236;28;20356;-92
2022/07/18 07:23:10;;;;;;;10.93;2.70;;;;;;;;;;4926768;29;20035;-93
2022/07/18 07:25:37;;;;;;;6.65;2.30;;;;;;;;;;4931358;29;20030;-93
2022/07/18 07:28:03;;;;;;;9.73;2.58;;;;;;;;;;4943337;28;20031;-93
2022/07/18 07:30:29;;;;;;;3.58;2.10;;;;;;;;;;4944537;28;20059;-93
2022/07/18 07:32:55;;;;;;;8.40;2.53;;;;;;;;;;4945086;28;20039;-93
2022/07/18 07:35:22;;;;;;;5.03;2.42;;;;;;;;;;4926999;29;20036;-93
2022/07/18 07:37:49;;;;;;;5.40;3.22;;;;;;;;;;4932272;29;20055;-93
2022/07/18 07:40:16;;;;;;;5.35;2.25;;;;;;;;;;4943604;28;20031;-93
2022/07/18 07:42:42;;;;;;;10.05;2.20;;;;;;;;;;4944217;28;20038;-93
2022/07/18 07:45:09;;;;;;;12.18;2.17;;;;;;;;;;4945614;28;20467;-93
2022/07/18 07:47:35;;;;;;;5.75;2.30;;;;;;;;;;4944284;28;20043;-93
2022/07/18 07:50:02;;;;;;;7.47;2.08;;;;;;;;;;4945341;28;20043;-92
2022/07/18 07:52:28;;;;;;;4.95;1.90;;;;;;;;;;4932153;29;20051;-92
2022/07/18 07:54:54;;;;;;;4.95;2.00;;;;;;;;;;4902546;29;20188;-92
2022/07/18 07:57:21;;;;;;;6.65;2.17;;;;;;;;;;4893266;29;20572;-93
2022/07/18 07:59:47;;;;;;;13.02;2.42;;;;;;;;;;4891601;29;20123;-92
2022/07/18 08:02:14;;;;;;;9.43;2.10;;;;;;;;;;4886144;29;20267;-93
2022/07/18 08:04:40;;;;;;;6.88;2.60;;;;;;;;;;4892487;29;20032;-93
2022/07/18 08:07:13;;;;;;;8.10;2.60;;;;;;;;;;4892851;29;20048;-92
2022/07/18 08:09:40;;;;;;;10.27;2.30;;;;;;;;;;4885941;29;20151;-92
2022/07/18 08:12:06;;;;;;;5.15;2.08;;;;;;;;;;4890197;29;20496;-92
2022/07/18 08:14:33;;;;;;;8.27;1.92;;;;;;;;;;4901990;29;20029;-92
2022/07/18 08:16:59;;;;;;;5.00;2.08;;;;;;;;;;4896986;29;20024;-91
2022/07/18 08:19:25;;;;;;;6.30;2.20;;;;;;;;;;4894974;29;20029;-92
2022/07/18 08:21:51;;;;;;;6.50;2.40;;;;;;;;;;4886670;29;20062;-93
2022/07/18 08:24:17;;;;;;;3.47;1.77;;;;;;;;;;4894760;29;20041;-93
2022/07/18 08:26:43;;;;;;;7.95;3.25;;;;;;;;;;4924772;29;20040;-92
2022/07/18 08:29:09;;;;;;;9.70;2.28;;;;;;;;;;4896771;29;20092;-93
2022/07/18 08:31:36;;;;;;;4.25;2.20;;;;;;;;;;4914155;29;20032;-93
2022/07/18 08:34:02;;;;;;;6.18;2.15;;;;;;;;;;4923940;29;20032;-93
2022/07/18 08:36:28;;;;;;;3.22;1.92;;;;;;;;;;4891660;29;20038;-93
2022/07/18 08:38:54;;;;;;;6.70;2.20;;;;;;;;;;4896556;29;20488;-92
2022/07/18 08:41:23;;;;;;;4.05;1.92;;;;;;;;;;4891183;29;20044;-91
2022/07/18 08:43:49;;;;;;;7.43;2.45;;;;;;;;;;4909426;29;20032;-91
2022/07/18 08:46:17;;;;;;;4.80;2.00;;;;;;;;;;4922407;29;20407;-93
2022/07/18 08:48:43;;;;;;;5.32;2.08;;;;;;;;;;4896342;29;20041;-93
2022/07/18 08:51:10;;;;;;;5.90;2.20;;;;;;;;;;4928258;29;20037;-92
2022/07/18 08:53:37;;;;;;;2.55;1.85;;;;;;;;;;4919375;28;20096;-92
2022/07/18 08:56:03;;;;;;;15.32;2.03;;;;;;;;;;4948864;28;20036;-92
2022/07/18 08:58:30;;;;;;;4.25;1.98;;;;;;;;;;4920175;29;20076;-92
2022/07/18 09:00:58;;;;;;;9.23;2.10;;;;;;;;;;4933448;29;21347;-93
2022/07/18 09:03:24;;;;;;;5.60;2.25;;;;;;;;;;4932048;29;20067;-93
2022/07/18 09:06:04;;;;;;;4.72;2.22;;;;;;;;;;4947966;28;20028;-91
2022/07/18 09:08:30;;;;;;;6.15;2.40;;;;;;;;;;4946638;28;20476;-92
2022/07/18 09:10:57;;;;;;;4.97;1.63;;;;;;;;;;4951816;28;20383;-93
2022/07/18 09:13:24;;;;;;;6.93;1.80;;;;;;;;;;4918692;29;20115;-92
2022/07/18 09:15:58;;;;;;;8.50;2.00;;;;;;;;;;4932882;29;20166;-94
2022/07/18 09:18:40;;;;;;;6.68;2.22;;;;;;;;;;4951496;28;20407;-93
2022/07/18 09:21:06;;;;;;;6.72;2.33;;;;;;;;;;4947796;28;20061;-93
2022/07/18 09:23:34;;;;;;;11.23;2.40;;;;;;;;;;4946473;28;20063;-92
2022/07/18 09:26:01;;;;;;;4.60;2.20;;;;;;;;;;4930277;29;20103;-92
2022/07/18 09:28:45;;;;;;;4.57;1.65;;;;;;;;;;4949868;28;20019;-92
2022/07/18 09:31:26;;;;;;;6.13;1.75;;;;;;;;;;4932192;29;20795;-93
2022/07/18 09:33:56;;;;;;;12.23;2.53;;;;;;;;;;4950655;28;20464;-92
2022/07/18 09:36:22;;;;;;;6.55;2.70;;;;;;;;;;4951776;28;20123;-92
2022/07/18 09:38:49;;;;;;;4.05;1.90;;;;;;;;;;4945167;28;20073;-92
2022/07/18 09:41:15;;;;;;;3.17;1.83;;;;;;;;;;4942021;28;20400;-92
2022/07/18 09:43:41;;;;;;;4.95;1.83;;;;;;;;;;4943675;28;20039;-94
2022/07/18 09:46:08;;;;;;;5.45;2.33;;;;;;;;;;4933837;29;20031;-92
2022/07/18 09:48:35;;;;;;;5.53;2.42;;;;;;;;;;4941371;29;20090;-92
2022/07/18 09:51:03;;;;;;;5.78;2.03;;;;;;;;;;4942382;28;20118;-93
2022/07/18 09:53:35;;;;;;;11.57;2.47;;;;;;;;;;4940582;28;20052;-92
2022/07/18 09:56:06;;;;;;;15.02;2.38;;;;;;;;;;4913793;29;20127;-93
2022/07/18 09:58:33;;;;;;;3.65;2.10;;;;;;;;;;4944072;28;20040;-93
2022/07/18 10:01:00;;;;;;;7.55;2.20;;;;;;;;;;4944447;28;20043;-92
2022/07/18 10:03:27;;;;;;;4.28;1.90;;;;;;;;;;4944126;28;20039;-93
2022/07/18 10:05:54;;;;;;;3.53;2.05;;;;;;;;;;4943928;28;20555;-93
2022/07/18 10:08:21;;;;;;;2.78;1.85;;;;;;;;;;4945330;28;20023;-93
2022/07/18 10:10:48;;;;;;;4.63;2.17;;;;;;;;;;4931260;29;20490;-92
2022/07/18 10:13:15;;;;;;;13.90;2.35;;;;;;;;;;4947788;28;20039;-92
2022/07/18 10:15:42;;;;;;;8.65;2.30;;;;;;;;;;4948574;28;20031;-93
2022/07/18 10:18:09;;;;;;;8.68;2.20;;;;;;;;;;4931007;29;20040;-92
2022/07/18 10:20:38;;;;;;;4.13;2.60;;;;;;;;;;4947066;28;20063;-93
2022/07/18 10:23:09;;;;;;;11.73;2.05;;;;;;;;;;4941375;28;20039;-92
2022/07/18 10:25:36;;;;;;;5.60;2.88;;;;;;;;;;4941919;28;21338;-90
2022/07/18 10:28:02;;;;;;;3.17;2.20;;;;;;;;;;4929862;29;20023;-90
2022/07/18 10:30:33;;;;;;;4.93;2.42;;;;;;;;;;4942322;28;20377;-90
2022/07/18 10:32:59;;;;;;;6.35;2.28;;;;;;;;;;4940614;28;20114;-90
2022/07/18 10:35:52;;;;;;;4.55;2.15;;;;;;;;;;4941320;28;20103;-90
2022/07/18 10:38:22;;;;;;;5.18;2.45;;;;;;;;;;4902650;29;20047;-90
2022/07/18 10:41:07;;;;;;;9.85;2.40;;;;;;;;;;4931803;29;20039;-90
2022/07/18 10:43:34;;;;;;;4.70;2.40;;;;;;;;;;4929056;29;20408;-91
2022/07/18 10:46:01;;;;;;;6.80;2.45;;;;;;;;;;4925805;29;20782;-92
2022/07/18 10:48:34;;;;;;;4.85;2.42;;;;;;;;;;4942566;28;20395;-91
2022/07/18 10:51:02;;;;;;;7.57;2.83;;;;;;;;;;4942134;28;20036;-91
2022/07/18 10:53:46;;;;;;;6.15;3.03;;;;;;;;;;4943147;28;20424;-90
2022/07/18 10:56:12;;;;;;;6.10;2.47;;;;;;;;;;4921996;29;20031;-90
2022/07/18 10:58:40;;;;;;;6.30;3.00;;;;;;;;;;4924128;29;20551;-90
2022/07/18 11:01:09;;;;;;;3.80;2.75;;;;;;;;;;4930163;29;20023;-90
2022/07/18 11:03:35;;;;;;;10.82;3.58;;;;;;;;;;4928083;29;20174;-90
2022/07/18 11:06:01;;;;;;;5.85;3.40;;;;;;;;;;4945175;28;20027;-90
2022/07/18 11:08:31;;;;;;;4.47;2.65;;;;;;;;;;4929608;29;20591;-90
2022/07/18 11:11:03;;;;;;;10.10;3.40;;;;;;;;;;4936200;28;20331;-90
2022/07/18 11:13:31;;;;;;;8.15;3.17;;;;;;;;;;4928434;29;20040;-90
2022/07/18 11:15:58;;;;;;;6.57;2.95;;;;;;;;;;4927127;29;20409;-90
2022/07/18 11:18:24;;;;;;;3.72;2.60;;;;;;;;;;4939131;28;20114;-90
2022/07/18 11:20:50;;;;;;;6.25;3.60;;;;;;;;;;4939058;28;20040;-90
2022/07/18 11:23:19;;;;;;;10.60;3.20;;;;;;;;;;4940522;28;20040;-90
2022/07/18 11:25:46;;;;;;;10.90;3.40;;;;;;;;;;4942938;28;20046;-90
2022/07/18 11:28:13;;;;;;;4.55;2.88;;;;;;;;;;4945913;28;20049;-90
2022/07/18 11:30:39;;;;;;;8.40;3.25;;;;;;;;;;4933405;28;20071;-88
2022/07/18 11:33:06;;;;;;;5.68;3.58;;;;;;;;;;4926598;29;20356;-88
2022/07/18 11:35:32;;;;;;;7.10;3.55;;;;;;;;;;4941223;28;20729;-86
2022/07/18 11:38:04;;;;;;;5.80;3.58;;;;;;;;;;4927454;29;20639;-87
2022/07/18 11:40:30;;;;;;;4.95;3.65;;;;;;;;;;4927716;29;20039;-87
2022/07/18 11:42:59;;;;;;;11.18;3.50;;;;;;;;;;4927479;29;20035;-87
2022/07/18 11:45:25;;;;;;;5.05;3.60;;;;;;;;;;4926917;29;20621;-87
2022/07/18 11:47:52;;;;;;;6.60;3.30;;;;;;;;;;4930916;29;20028;-86
2022/07/18 11:50:26;;;;;;;7.10;3.35;;;;;;;;;;4931385;28;20034;-87
2022/07/18 11:52:56;;;;;;;7.60;4.22;;;;;;;;;;4943606;28;20042;-86
2022/07/18 11:55:31;;;;;;;6.45;3.13;;;;;;;;;;4920853;29;20064;-87
2022/07/18 11:58:05;;;;;;;5.75;3.58;;;;;;;;;;4918963;29;20044;-90
2022/07/18 12:00:31;;;;;;;7.05;3.72;;;;;;;;;;4911145;29;20029;-87
2022/07/18 12:03:09;;;;;;;5.40;3.85;;;;;;;;;;4895554;29;20048;-86
2022/07/18 12:05:39;;;;;;;9.88;3.40;;;;;;;;;;4907880;29;20063;-87
2022/07/18 12:08:24;;;;;;;4.85;3.65;;;;;;;;;;4896359;29;20028;-86
2022/07/18 12:11:06;;;;;;;9.52;3.42;;;;;;;;;;4891833;29;20481;-87
2022/07/18 12:13:41;;;;;;;9.68;3.70;;;;;;;;;;4883492;29;20033;-87
2022/07/18 12:16:07;;;;;;;5.60;4.35;;;;;;;;;;4908842;29;20064;-86
2022/07/18 12:18:33;;;;;;;7.25;4.10;;;;;;;;;;4891464;29;20039;-87
2022/07/18 12:21:11;;;;;;;9.88;4.20;;;;;;;;;;4898965;29;20036;-87
2022/07/18 12:23:37;;;;;;;11.85;4.03;;;;;;;;;;4883315;29;20120;-87
2022/07/18 12:26:03;;;;;;;8.13;4.47;;;;;;;;;;4924107;29;20060;-87
2022/07/18 12:28:29;;;;;;;5.07;3.90;;;;;;;;;;4904766;29;20029;-87
2022/07/18 12:30:55;;;;;;;6.35;3.85;;;;;;;;;;4892004;29;20032;-87
2022/07/18 12:33:28;;;;;;;7.63;3.80;;;;;;;;;;4895229;29;20135;-87
2022/07/18 12:36:01;;;;;;;14.15;4.18;;;;;;;;;;4898432;29;20572;-87
2022/07/18 12:38:27;;;;;;;5.20;4.00;;;;;;;;;;4922621;29;20037;-87
2022/07/18 12:40:57;;;;;;;8.65;4.20;;;;;;;;;;4892513;29;20040;-87
2022/07/18 12:43:23;;;;;;;8.15;4.15;;;;;;;;;;4892848;29;20428;-87
2022/07/18 12:45:50;;;;;;;4.85;3.75;;;;;;;;;;4894205;29;20955;-87
2022/07/18 12:48:16;;;;;;;4.93;3.88;;;;;;;;;;4891686;29;20107;-87
2022/07/18 12:50:42;;;;;;;6.38;3.88;;;;;;;;;;4893277;29;20146;-87
2022/07/18 12:53:08;;;;;;;13.13;4.15;;;;;;;;;;4893164;29;20048;-87
2022/07/18 12:55:35;;;;;;;5.43;4.20;;;;;;;;;;4932513;29;20047;-87
2022/07/18 12:58:01;;;;;;;8.82;3.97;;;;;;;;;;4945914;28;20020;-87
2022/07/18 13:00:29;;;;;;;8.20;3.47;;;;;;;;;;4931893;29;20348;-87
2022/07/18 13:02:56;;;;;;;5.78;3.88;;;;;;;;;;4927100;29;20192;-87
2022/07/18 13:05:22;;;;;;;6.85;4.32;;;;;;;;;;4946933;28;20684;-87
2022/07/18 13:07:48;;;;;;;8.98;4.18;;;;;;;;;;4927957;29;20035;-87
2022/07/18 13:10:14;;;;;;;8.27;4.22;;;;;;;;;;4931028;29;20175;-87
2022/07/18 13:12:40;;;;;;;6.13;3.83;;;;;;;;;;4947514;28;20126;-87
2022/07/18 13:15:07;;;;;;;9.18;3.80;;;;;;;;;;4944403;28;20027;-87
2022/07/18 13:17:33;;;;;;;7.20;4.15;;;;;;;;;;4915708;29;20070;-87
2022/07/18 13:19:59;;;;;;;16.45;4.88;;;;;;;;;;4944324;28;20032;-87
2022/07/18 13:22:25;;;;;;;10.38;5.10;;;;;;;;;;4919369;29;20739;-87
2022/07/18 13:24:51;;;;;;;5.03;4.50;;;;;;;;;;4911592;29;20046;-87
2022/07/18 13:27:19;;;;;;;6.30;4.25;;;;;;;;;;4942966;28;20053;-87
2022/07/18 13:29:46;;;;;;;6.72;4.68;;;;;;;;;;4950243;28;20562;-87
2022/07/18 13:32:12;;;;;;;10.88;4.85;;;;;;;;;;4950158;28;20066;-87
2022/07/18 13:34:38;;;;;;;6.85;4.10;;;;;;;;;;4921326;29;20028;-87
2022/07/18 13:37:04;;;;;;;6.82;4.80;;;;;;;;;;4949242;28;20043;-87
2022/07/18 13:39:30;;;;;;;7.03;4.28;;;;;;;;;;4952044;28;20023;-87
2022/07/18 13:41:56;;;;;;;7.00;4.13;;;;;;;;;;4950459;28;20425;-87
2022/07/18 13:44:22;;;;;;;5.43;4.07;;;;;;;;;;4937521;29;20039;-87
2022/07/18 13:46:48;;;;;;;6.75;4.35;;;;;;;;;;4939590;29;20032;-87
2022/07/18 13:49:16;;;;;;;7.68;4.75;;;;;;;;;;4952620;28;20032;-87
2022/07/18 13:51:42;;;;;;;6.75;4.30;;;;;;;;;;4953305;28;20051;-87
2022/07/18 13:54:20;;;;;;;7.32;4.40;;;;;;;;;;4935271;28;20143;-87
2022/07/18 13:56:46;;;;;;;13.60;5.00;;;;;;;;;;4949822;28;20036;-86
2022/07/18 13:59:12;;;;;;;6.63;3.85;;;;;;;;;;4940656;29;20067;-87
2022/07/18 14:01:39;;;;;;;5.57;3.97;;;;;;;;;;4955296;28;20126;-86
2022/07/18 14:04:05;;;;;;;7.35;3.50;;;;;;;;;;4922919;29;20095;-87
2022/07/18 14:06:31;;;;;;;4.97;3.55;;;;;;;;;;4926483;29;20043;-87
2022/07/18 14:08:57;;;;;;;7.97;4.38;;;;;;;;;;4951204;28;20062;-87
2022/07/18 14:11:23;;;;;;;13.10;3.72;;;;;;;;;;4949775;28;20036;-86
2022/07/18 14:13:49;;;;;;;6.22;3.70;;;;;;;;;;4934136;29;20695;-87
2022/07/18 14:16:15;;;;;;;4.88;3.50;;;;;;;;;;4950372;28;20039;-87
2022/07/18 14:18:41;;;;;;;5.57;3.47;;;;;;;;;;4949570;28;20095;-87
2022/07/18 14:21:07;;;;;;;5.55;3.83;;;;;;;;;;4934514;29;20036;-88
2022/07/18 14:23:33;;;;;;;4.25;3.45;;;;;;;;;;4947739;28;20039;-87
2022/07/18 14:25:59;;;;;;;9.15;3.97;;;;;;;;;;4949944;28;20090;-87
2022/07/18 14:28:25;;;;;;;5.20;3.88;;;;;;;;;;4934711;29;20034;-86
2022/07/18 14:30:51;;;;;;;8.57;3.90;;;;;;;;;;4948767;28;20571;-87
2022/07/18 14:33:17;;;;;;;5.95;4.03;;;;;;;;;;4949728;28;20090;-87
2022/07/18 14:35:43;;;;;;;7.25;3.80;;;;;;;;;;4916032;29;20134;-87
2022/07/18 14:38:09;;;;;;;6.53;4.28;;;;;;;;;;4951169;28;20082;-86